KIFP/IFP METAR and TAF weather

Enter ICAO airport designator
Station Type Date Time Source
KIFP METAR 2019/05/19 20:50 UTC NOAA

KIFP 192050Z 20016KT 20SM BKN080 26/00 A2965


Station Type Date Time Source
KIFP Decoded METAR 2019/05/19 20:50 UTC NOAA

Bullhead City, Laughlin/Bullhead International Airport, AZ, United States (KIFP) 35-09-27N 114-33-34W
May 19, 2019 - 04:50 PM EDT / 2019.05.19 2050 UTC
Wind: from the SSW (200 degrees) at 18 MPH (16 KT):0
Visibility: 20 mile(s):0
Sky conditions: mostly cloudy
Temperature: 78 F (26 C)
Dew Point: 32 F (0 C)
Relative Humidity: 18%
Pressure (altimeter): 29.65 in. Hg (1004 hPa)
ob: KIFP 192050Z 20016KT 20SM BKN080 26/00 A2965
cycle: 21

Station Type Date Time Source
KIFP TAF 2019/05/19 18:39 UTC NOAA

TAF KIFP 191736Z 1918/2018 20018G26KT P6SM BKN100
FM200100 19012KT P6SM SCT100

Example: see airport list